KSHV/SHV METAR and TAF weather

Enter ICAO airport designator
Station Type Date Time Source
KSHV METAR 2021/09/19 12:56 UTC NOAA

KSHV 191256Z 00000KT 6SM BR FEW006 SCT110 SCT240 24/22 A2996 RMK AO2 SLP141 MIFG SE-S T02390222


Station Type Date Time Source
KSHV Decoded METAR 2021/09/19 12:56 UTC NOAA

SHREVEPORT REGIONAL AIRPORT, LA, United States (KSHV) 32-27N 93-50W 80M
Sep 19, 2021 - 08:56 AM EDT / 2021.09.19 1256 UTC
Wind: Calm:0
Visibility: 6 mile(s):0
Sky conditions: partly cloudy
Weather: mist
Temperature: 75.0 F (23.9 C)
Dew Point: 72.0 F (22.2 C)
Relative Humidity: 90%
Pressure (altimeter): 29.96 in. Hg (1014 hPa)
ob: KSHV 191256Z 00000KT 6SM BR FEW006 SCT110 SCT240 24/22 A2996 RMK AO2 SLP141 MIFG SE-S T02390222
cycle: 13

Station Type Date Time Source
KSHV TAF 2021/09/19 12:58 UTC NOAA

TAF
AMD KSHV 191158Z 1912/2012 11004KT 4SM BR FEW007 FEW110
FM191400 12004KT P6SM VCSH BKN070
FM191700 14004KT P6SM VCTS BKN035CB
FM200000 14004KT P6SM BKN250

Example: see airport list